createdAt,value
2023-02-17T00:01:21.904Z,7.92
2023-02-17T00:06:26.648Z,7.61
2023-02-17T00:11:28.692Z,7.18
2023-02-17T00:16:30.400Z,7.04
2023-02-17T00:21:32.561Z,7.02
2023-02-17T00:26:34.261Z,7.20
2023-02-17T00:31:36.192Z,7.47
2023-02-17T00:36:38.783Z,7.63
2023-02-17T00:41:41.033Z,7.73
2023-02-17T00:46:42.784Z,7.80
2023-02-17T00:51:45.788Z,7.86
2023-02-17T00:56:47.536Z,7.93
2023-02-17T01:01:49.294Z,7.96
2023-02-17T01:06:51.091Z,8.04
2023-02-17T01:11:53.006Z,8.10
2023-02-17T01:16:54.729Z,8.18
2023-02-17T01:21:56.535Z,8.20
2023-02-17T01:26:58.244Z,8.22
2023-02-17T01:32:02.540Z,8.27
2023-02-17T01:37:04.863Z,8.30
2023-02-17T01:42:16.606Z,8.33
2023-02-17T01:47:18.477Z,8.33
2023-02-17T01:52:25.290Z,8.35
2023-02-17T01:57:30.240Z,8.39
2023-02-17T02:02:32.850Z,8.43
2023-02-17T02:07:39.017Z,8.53
2023-02-17T02:12:42.955Z,8.61
2023-02-17T02:18:09.633Z,8.70
2023-02-17T02:23:29.861Z,8.74
2023-02-17T02:29:09.464Z,8.79
2023-02-17T02:34:20.780Z,8.83
2023-02-17T02:39:28.188Z,8.85
2023-02-17T02:44:30.516Z,8.88
2023-02-17T02:49:35.465Z,8.91
2023-02-17T02:55:10.005Z,8.95
2023-02-17T03:00:29.901Z,9.01
2023-02-17T03:05:57.250Z,9.05
2023-02-17T03:11:00.581Z,9.09
2023-02-17T03:16:09.127Z,9.12
2023-02-17T03:21:15.841Z,9.21
2023-02-17T03:26:18.229Z,9.28
2023-02-17T03:31:21.923Z,9.38
2023-02-17T03:36:23.679Z,9.44
2023-02-17T03:41:25.964Z,9.51
2023-02-17T03:46:27.686Z,9.57
2023-02-17T03:51:29.472Z,9.62
2023-02-17T03:56:31.676Z,9.68
2023-02-17T04:01:33.618Z,9.73
2023-02-17T04:06:35.476Z,9.80
2023-02-17T04:11:37.589Z,9.89
2023-02-17T04:16:39.396Z,9.92
2023-02-17T04:21:41.270Z,9.92
2023-02-17T04:26:42.947Z,9.94
2023-02-17T04:31:44.694Z,9.95
2023-02-17T04:36:46.428Z,9.98
2023-02-17T04:41:48.272Z,9.95
2023-02-17T04:46:49.912Z,10.01
2023-02-17T04:51:51.948Z,10.04
2023-02-17T04:56:53.611Z,10.05
2023-02-17T05:01:55.231Z,10.05
2023-02-17T05:06:56.986Z,10.05
2023-02-17T05:11:59.113Z,10.04
2023-02-17T05:17:00.809Z,10.09
2023-02-17T05:22:02.894Z,10.11
2023-02-17T05:27:04.650Z,10.14
2023-02-17T05:32:06.398Z,10.14
2023-02-17T05:37:08.145Z,10.15
2023-02-17T05:42:09.922Z,10.17
2023-02-17T05:47:11.764Z,10.16
2023-02-17T05:52:13.461Z,10.14
2023-02-17T05:57:15.117Z,10.17
2023-02-17T06:02:16.836Z,10.19
2023-02-17T06:07:18.889Z,10.19
2023-02-17T06:12:20.828Z,10.22
2023-02-17T06:17:22.582Z,10.29
2023-02-17T06:22:24.302Z,10.31
2023-02-17T06:27:26.168Z,10.34
2023-02-17T06:32:28.221Z,10.35
2023-02-17T06:37:29.991Z,10.37
2023-02-17T06:42:31.770Z,10.35
2023-02-17T06:47:34.635Z,10.37
2023-02-17T06:52:36.699Z,10.42
2023-02-17T06:57:38.376Z,10.45
2023-02-17T07:02:40.837Z,10.49
2023-02-17T07:07:42.661Z,10.50
2023-02-17T07:12:44.687Z,10.56
2023-02-17T07:17:46.734Z,10.60
2023-02-17T07:22:48.496Z,10.63
2023-02-17T07:27:50.209Z,10.68
2023-02-17T07:32:51.792Z,10.73
2023-02-17T07:37:53.528Z,10.75
2023-02-17T07:42:56.885Z,10.80
2023-02-17T07:47:58.617Z,10.83
2023-02-17T07:53:00.601Z,10.88
2023-02-17T07:58:02.284Z,10.95
2023-02-17T08:03:04.282Z,11.07
2023-02-17T08:08:24.569Z,11.19
2023-02-17T08:13:27.652Z,11.31
2023-02-17T08:18:34.339Z,11.36
2023-02-17T08:23:38.108Z,11.38
2023-02-17T08:28:40.298Z,11.39
2023-02-17T08:33:42.011Z,11.43
2023-02-17T08:38:48.528Z,11.57
2023-02-17T08:43:51.079Z,11.78
2023-02-17T08:48:55.765Z,11.96
2023-02-17T08:54:00.712Z,12.09
2023-02-17T08:59:02.575Z,12.14
2023-02-17T09:04:06.830Z,12.21
2023-02-17T09:09:11.673Z,12.28
2023-02-17T09:14:13.747Z,12.33
2023-02-17T09:19:15.879Z,12.41
2023-02-17T09:24:17.961Z,12.46
2023-02-17T09:29:19.665Z,12.56
2023-02-17T09:34:21.401Z,12.63
2023-02-17T09:39:25.456Z,12.69
2023-02-17T09:44:43.954Z,12.71
2023-02-17T09:49:51.132Z,12.75
2023-02-17T09:55:01.472Z,12.79
2023-02-17T10:00:35.276Z,12.91
2023-02-17T10:05:51.295Z,13.10
2023-02-17T10:11:00.654Z,13.21
2023-02-17T10:16:10.171Z,13.27
2023-02-17T10:21:35.376Z,13.40
2023-02-17T10:26:57.322Z,13.46
2023-02-17T10:32:19.970Z,13.50
2023-02-17T10:37:33.273Z,13.62
2023-02-17T10:42:38.145Z,13.68
2023-02-17T10:47:41.115Z,13.71
2023-02-17T10:52:46.441Z,13.76
2023-02-17T10:57:52.362Z,13.78
2023-02-17T11:02:54.303Z,13.82
2023-02-17T11:08:00.653Z,13.95
2023-02-17T11:13:19.421Z,14.02
2023-02-17T11:18:27.913Z,14.05
2023-02-17T11:23:29.922Z,13.94
2023-02-17T11:28:31.976Z,13.93
2023-02-17T11:33:37.197Z,13.93
2023-02-17T11:38:38.823Z,13.79
2023-02-17T11:43:51.803Z,13.68
2023-02-17T11:49:05.128Z,13.64
2023-02-17T11:54:22.939Z,13.69
2023-02-17T11:59:40.372Z,13.69
2023-02-17T12:04:52.881Z,13.78
2023-02-17T12:10:06.913Z,13.89
2023-02-17T12:15:17.318Z,14.04
2023-02-17T12:20:50.960Z,14.29
2023-02-17T12:26:05.031Z,14.33
2023-02-17T12:31:12.084Z,14.33
2023-02-17T12:36:20.126Z,14.33
2023-02-17T12:41:37.290Z,14.25
2023-02-17T12:46:43.058Z,14.20
2023-02-17T12:51:51.852Z,14.18
2023-02-17T12:56:59.956Z,14.10
2023-02-17T13:02:07.635Z,14.06
2023-02-17T13:07:43.606Z,14.01
2023-02-17T13:13:06.155Z,13.85
2023-02-17T13:18:27.500Z,13.70
2023-02-17T13:23:35.274Z,13.57
2023-02-17T13:28:40.641Z,13.35
2023-02-17T13:33:46.561Z,13.20
2023-02-17T13:44:40.208Z,12.85
2023-02-17T13:49:42.371Z,12.88
2023-02-17T13:55:19.021Z,12.84
2023-02-17T14:00:24.240Z,12.72
2023-02-17T14:05:32.177Z,12.58
2023-02-17T14:10:36.036Z,12.58
2023-02-17T14:15:38.887Z,12.58
2023-02-17T14:20:41.251Z,12.64
2023-02-17T14:25:46.571Z,12.65
2023-02-17T14:30:48.975Z,12.74
2023-02-17T14:35:58.082Z,12.78
2023-02-17T14:41:01.214Z,12.84
2023-02-17T14:46:03.215Z,12.90
2023-02-17T14:51:12.764Z,12.95
2023-02-17T14:56:27.509Z,13.02
2023-02-17T15:01:29.252Z,13.13
2023-02-17T15:06:40.970Z,13.23
2023-02-17T15:11:46.267Z,13.33
2023-02-17T15:16:48.793Z,13.32
2023-02-17T15:21:51.905Z,13.34
2023-02-17T15:26:54.327Z,13.34
2023-02-17T15:31:59.957Z,13.39
2023-02-17T15:37:02.742Z,13.39
2023-02-17T15:42:11.455Z,13.44
2023-02-17T15:47:16.105Z,13.49
2023-02-17T15:52:18.015Z,13.56
2023-02-17T15:57:24.771Z,13.53
2023-02-17T16:02:26.546Z,13.49
2023-02-17T16:07:28.215Z,13.45
2023-02-17T16:12:30.007Z,13.38
2023-02-17T16:17:31.952Z,13.34
2023-02-17T16:22:33.721Z,13.30
2023-02-17T16:27:36.758Z,13.28
2023-02-17T16:32:38.563Z,13.21
2023-02-17T16:37:40.306Z,13.11
2023-02-17T16:42:42.275Z,13.00
2023-02-17T16:47:47.429Z,12.95
2023-02-17T16:52:49.158Z,12.91
2023-02-17T16:57:51.324Z,12.90
2023-02-17T17:02:53.685Z,12.81
2023-02-17T17:07:56.488Z,12.78
2023-02-17T17:12:58.266Z,12.72
2023-02-17T17:18:02.635Z,12.64
2023-02-17T17:23:11.579Z,12.55
2023-02-17T17:28:14.945Z,12.50
2023-02-17T17:33:17.152Z,12.46
2023-02-17T17:38:19.516Z,12.42
2023-02-17T17:43:36.398Z,12.39
2023-02-17T17:48:38.149Z,12.38
2023-02-17T17:53:40.029Z,12.36
2023-02-17T17:58:42.168Z,12.24
2023-02-17T18:03:43.894Z,12.28
2023-02-17T18:08:47.574Z,12.35
2023-02-17T18:13:51.919Z,12.34
2023-02-17T18:18:56.145Z,12.34
2023-02-17T18:23:57.881Z,12.35
2023-02-17T18:29:00.603Z,12.35
2023-02-17T18:34:02.296Z,12.37
2023-02-17T18:39:05.102Z,12.39
2023-02-17T18:44:07.027Z,12.42
2023-02-17T18:49:08.770Z,12.43
2023-02-17T18:54:11.029Z,12.43
2023-02-17T18:59:12.849Z,12.38
2023-02-17T19:04:15.307Z,12.33
2023-02-17T19:09:17.461Z,12.31
2023-02-17T19:14:19.089Z,12.39
2023-02-17T19:19:20.797Z,12.39
2023-02-17T19:24:22.873Z,12.43
2023-02-17T19:29:24.685Z,12.46
2023-02-17T19:34:28.172Z,12.51
2023-02-17T19:39:31.215Z,12.56
2023-02-17T19:44:32.926Z,12.54
2023-02-17T19:49:34.767Z,12.58
2023-02-17T19:54:36.735Z,12.57
2023-02-17T19:59:38.501Z,12.59
2023-02-17T20:04:40.473Z,12.59
2023-02-17T20:09:44.497Z,12.64
2023-02-17T20:14:46.270Z,12.61
2023-02-17T20:19:47.943Z,12.65
2023-02-17T20:24:49.589Z,12.68
2023-02-17T20:29:51.471Z,12.63
2023-02-17T20:34:53.134Z,12.63
2023-02-17T20:39:54.779Z,12.69
2023-02-17T20:44:56.781Z,12.74
2023-02-17T20:49:58.476Z,12.73
2023-02-17T20:55:00.381Z,12.73
2023-02-17T21:00:04.649Z,12.74
2023-02-17T21:05:06.653Z,12.74
2023-02-17T21:10:14.760Z,12.77
2023-02-17T21:15:17.229Z,12.82
2023-02-17T21:20:21.041Z,12.90
2023-02-17T21:25:23.126Z,12.97
2023-02-17T21:30:26.605Z,12.96
2023-02-17T21:35:28.695Z,13.02
2023-02-17T21:40:30.540Z,13.02
2023-02-17T21:45:37.676Z,13.00
2023-02-17T21:50:39.742Z,13.04
2023-02-17T21:55:41.411Z,13.03
2023-02-17T22:00:43.253Z,13.06
2023-02-17T22:05:45.237Z,13.11
2023-02-17T22:10:46.898Z,13.09
2023-02-17T22:15:57.909Z,13.09
2023-02-17T22:20:59.552Z,13.09
2023-02-17T22:26:06.097Z,13.05
2023-02-17T22:31:08.460Z,13.04
2023-02-17T22:36:16.206Z,13.00
2023-02-17T22:41:20.024Z,12.98
2023-02-17T22:46:24.614Z,12.86
2023-02-17T22:51:30.596Z,12.83
2023-02-17T22:56:33.116Z,12.82
2023-02-17T23:01:36.343Z,12.82
2023-02-17T23:06:38.282Z,12.82
2023-02-17T23:11:58.280Z,12.80
2023-02-17T23:17:03.489Z,12.79
2023-02-17T23:22:16.981Z,12.76
2023-02-17T23:27:21.198Z,12.76
2023-02-17T23:32:22.910Z,12.71
2023-02-17T23:37:24.707Z,12.68
2023-02-17T23:42:26.463Z,12.68
2023-02-17T23:47:28.238Z,12.62
2023-02-17T23:52:29.952Z,12.60
2023-02-17T23:57:36.084Z,12.56
